createdAt,value
2023-04-07T00:02:29.001Z,4.22
2023-04-07T00:05:30.672Z,4.40
2023-04-07T00:08:32.070Z,4.55
2023-04-07T00:11:33.510Z,5.38
2023-04-07T00:14:34.933Z,3.80
2023-04-07T00:17:36.474Z,4.10
2023-04-07T00:20:38.018Z,3.90
2023-04-07T00:23:39.465Z,4.17
2023-04-07T00:26:40.949Z,4.10
2023-04-07T00:29:43.764Z,4.13
2023-04-07T00:32:45.538Z,3.75
2023-04-07T00:35:47.083Z,3.78
2023-04-07T00:38:48.650Z,3.78
2023-04-07T00:41:51.266Z,3.70
2023-04-07T00:47:54.161Z,3.60
2023-04-07T00:50:55.629Z,3.72
2023-04-07T00:53:57.485Z,4.20
2023-04-07T00:56:59.186Z,4.30
2023-04-07T01:00:00.744Z,4.00
2023-04-07T01:03:20.977Z,3.88
2023-04-07T01:06:27.320Z,3.40
2023-04-07T01:09:44.459Z,4.10
2023-04-07T01:12:57.798Z,4.00
2023-04-07T01:16:05.759Z,4.10
2023-04-07T01:19:21.184Z,3.75
2023-04-07T01:22:43.416Z,3.67
2023-04-07T01:26:12.344Z,3.75
2023-04-07T01:29:26.045Z,3.70
2023-04-07T01:32:28.037Z,4.30
2023-04-07T01:35:32.207Z,3.65
2023-04-07T01:38:33.919Z,3.63
2023-04-07T01:41:37.572Z,3.92
2023-04-07T01:44:39.401Z,3.50
2023-04-07T01:47:41.283Z,3.50
2023-04-07T01:50:45.814Z,3.20
2023-04-07T01:53:48.867Z,4.00
2023-04-07T01:56:50.812Z,4.20
2023-04-07T01:59:53.676Z,3.70
2023-04-07T02:03:07.631Z,3.63
2023-04-07T02:06:12.685Z,3.65
2023-04-07T02:09:17.868Z,3.85
2023-04-07T02:12:20.457Z,4.10
2023-04-07T02:15:36.726Z,3.63
2023-04-07T02:18:38.781Z,3.88
2023-04-07T02:21:41.239Z,4.00
2023-04-07T02:27:47.237Z,3.38
2023-04-07T02:30:48.654Z,3.20
2023-04-07T02:33:50.294Z,3.50
2023-04-07T02:36:51.926Z,3.60
2023-04-07T02:39:53.400Z,3.85
2023-04-07T02:42:55.247Z,3.53
2023-04-07T02:45:57.661Z,3.42
2023-04-07T02:48:59.160Z,4.43
2023-04-07T02:52:00.755Z,3.80
2023-04-07T02:55:02.564Z,4.32
2023-04-07T02:58:04.727Z,3.80
2023-04-07T03:01:13.781Z,3.80
2023-04-07T03:04:15.898Z,4.00
2023-04-07T03:07:18.263Z,4.00
2023-04-07T03:10:19.822Z,3.55
2023-04-07T03:13:21.706Z,3.50
2023-04-07T03:16:23.259Z,3.40
2023-04-07T03:19:46.932Z,3.20
2023-04-07T03:22:48.437Z,3.72
2023-04-07T03:25:57.906Z,3.50
2023-04-07T03:29:04.197Z,3.70
2023-04-07T03:32:06.174Z,3.40
2023-04-07T03:35:08.471Z,4.57
2023-04-07T03:38:09.929Z,3.38
2023-04-07T03:41:11.533Z,3.53
2023-04-07T03:44:13.068Z,4.10
2023-04-07T03:50:16.960Z,3.78
2023-04-07T03:53:43.069Z,3.60
2023-04-07T03:57:03.274Z,3.35
2023-04-07T04:00:09.527Z,4.00
2023-04-07T04:03:33.299Z,3.70
2023-04-07T04:06:57.757Z,3.80
2023-04-07T04:10:20.952Z,4.00
2023-04-07T04:13:25.097Z,3.80
2023-04-07T04:16:26.918Z,4.07
2023-04-07T04:19:32.241Z,3.88
2023-04-07T04:22:38.388Z,4.20
2023-04-07T04:25:40.851Z,3.92
2023-04-07T04:28:45.471Z,3.83
2023-04-07T04:31:48.520Z,4.10
2023-04-07T04:34:50.076Z,3.80
2023-04-07T04:37:52.771Z,3.80
2023-04-07T04:40:54.355Z,3.90
2023-04-07T04:44:01.517Z,4.20
2023-04-07T04:47:06.429Z,3.85
2023-04-07T04:53:12.645Z,4.05
2023-04-07T04:56:21.489Z,3.75
2023-04-07T04:59:24.468Z,3.90
2023-04-07T05:02:31.826Z,4.18
2023-04-07T05:05:33.612Z,3.80
2023-04-07T05:08:36.564Z,3.95
2023-04-07T05:11:41.092Z,4.43
2023-04-07T05:14:42.662Z,5.80
2023-04-07T05:17:44.299Z,4.05
2023-04-07T05:20:49.332Z,4.40
2023-04-07T05:23:51.744Z,4.68
2023-04-07T05:26:57.034Z,4.43
2023-04-07T05:29:59.210Z,4.80
2023-04-07T05:33:05.892Z,5.15
2023-04-07T05:36:16.003Z,4.63
2023-04-07T05:39:17.632Z,5.28
2023-04-07T05:42:21.094Z,4.97
2023-04-07T05:45:26.229Z,5.00
2023-04-07T05:48:27.799Z,5.22
2023-04-07T05:51:31.382Z,5.22
2023-04-07T05:54:36.183Z,5.22
2023-04-07T05:57:40.366Z,5.03
2023-04-07T06:00:41.903Z,5.75
2023-04-07T06:03:48.786Z,5.15
2023-04-07T06:06:59.233Z,4.85
2023-04-07T06:10:00.660Z,5.00
2023-04-07T06:13:02.070Z,5.23
2023-04-07T06:16:03.532Z,4.75
2023-04-07T06:19:07.144Z,4.90
2023-04-07T06:22:08.750Z,4.88
2023-04-07T06:25:10.420Z,5.00
2023-04-07T06:28:12.482Z,4.85
2023-04-07T06:31:13.930Z,4.85
2023-04-07T06:34:16.494Z,5.10
2023-04-07T06:37:18.218Z,4.78
2023-04-07T06:40:19.705Z,5.03
2023-04-07T06:43:21.250Z,4.80
2023-04-07T06:46:28.751Z,5.30
2023-04-07T06:49:30.275Z,4.83
2023-04-07T06:52:31.943Z,5.20
2023-04-07T06:55:33.419Z,5.15
2023-04-07T06:58:35.602Z,5.80
2023-04-07T07:01:37.897Z,5.38
2023-04-07T07:04:39.514Z,4.88
2023-04-07T07:07:41.051Z,5.00
2023-04-07T07:10:42.510Z,4.80
2023-04-07T07:13:45.026Z,6.67
2023-04-07T07:16:46.496Z,5.93
2023-04-07T07:19:47.927Z,6.50
2023-04-07T07:22:50.932Z,7.10
2023-04-07T07:25:52.510Z,6.40
2023-04-07T07:28:54.162Z,6.45
2023-04-07T07:31:56.316Z,6.47
2023-04-07T07:34:58.855Z,6.80
2023-04-07T07:38:01.013Z,6.78
2023-04-07T07:41:02.684Z,7.38
2023-04-07T07:44:04.401Z,7.57
2023-04-07T07:47:05.865Z,8.38
2023-04-07T07:50:07.513Z,8.83
2023-04-07T07:53:08.918Z,11.27
2023-04-07T07:56:10.559Z,9.17
2023-04-07T07:59:12.146Z,9.60
2023-04-07T08:02:13.895Z,11.53
2023-04-07T08:05:15.484Z,7.95
2023-04-07T08:08:16.930Z,7.80
2023-04-07T08:11:18.389Z,8.07
2023-04-07T08:14:20.177Z,7.53
2023-04-07T08:17:21.647Z,7.65
2023-04-07T08:20:23.689Z,6.97
2023-04-07T08:23:25.860Z,7.20
2023-04-07T08:26:27.664Z,8.15
2023-04-07T08:29:30.541Z,7.55
2023-04-07T08:32:41.045Z,7.70
2023-04-07T08:35:42.634Z,8.23
2023-04-07T08:38:44.263Z,7.85
2023-04-07T08:41:47.184Z,7.40
2023-04-07T08:44:51.606Z,7.63
2023-04-07T08:47:57.234Z,6.93
2023-04-07T08:51:04.269Z,7.22
2023-04-07T08:54:12.626Z,7.38
2023-04-07T08:57:16.549Z,7.72
2023-04-07T09:00:18.522Z,6.75
2023-04-07T09:03:21.494Z,7.68
2023-04-07T09:06:23.200Z,7.45
2023-04-07T09:09:24.619Z,7.00
2023-04-07T09:12:28.077Z,7.22
2023-04-07T09:15:32.861Z,8.45
2023-04-07T09:18:34.358Z,7.68
2023-04-07T09:21:52.819Z,8.03
2023-04-07T09:25:13.510Z,8.20
2023-04-07T09:28:14.937Z,9.07
2023-04-07T09:31:16.669Z,9.17
2023-04-07T09:34:26.231Z,8.18
2023-04-07T09:37:27.766Z,8.73
2023-04-07T09:40:29.442Z,8.00
2023-04-07T09:43:31.659Z,9.48
2023-04-07T09:49:49.140Z,9.50
2023-04-07T09:52:52.457Z,8.45
2023-04-07T09:55:54.194Z,8.60
2023-04-07T09:58:56.778Z,8.95
2023-04-07T10:01:59.077Z,8.73
2023-04-07T10:05:01.068Z,8.00
2023-04-07T10:08:03.462Z,7.53
2023-04-07T10:14:09.940Z,7.72
2023-04-07T10:17:12.206Z,9.32
2023-04-07T10:23:22.081Z,8.15
2023-04-07T10:26:28.290Z,9.90
2023-04-07T10:29:34.550Z,11.15
2023-04-07T10:32:49.627Z,10.18
2023-04-07T10:36:07.486Z,9.88
2023-04-07T10:39:09.073Z,11.45
2023-04-07T10:42:41.470Z,12.17
2023-04-07T10:45:45.833Z,8.90
2023-04-07T10:49:08.530Z,9.43
2023-04-07T10:52:13.156Z,7.67
2023-04-07T10:55:35.177Z,7.15
2023-04-07T10:58:37.308Z,7.28
2023-04-07T11:01:39.180Z,7.97
2023-04-07T11:04:45.502Z,8.15
2023-04-07T11:07:50.266Z,8.80
2023-04-07T11:10:51.736Z,8.88
2023-04-07T11:13:53.189Z,8.83
2023-04-07T11:16:54.852Z,9.27
2023-04-07T11:19:57.509Z,8.55
2023-04-07T11:23:00.224Z,8.50
2023-04-07T11:26:02.947Z,8.88
2023-04-07T11:29:04.624Z,9.35
2023-04-07T11:32:06.275Z,9.88
2023-04-07T11:35:08.352Z,9.40
2023-04-07T11:38:10.311Z,9.75
2023-04-07T11:41:13.647Z,9.90
2023-04-07T11:44:15.425Z,9.75
2023-04-07T11:47:16.992Z,9.90
2023-04-07T11:50:38.844Z,10.53
2023-04-07T11:53:41.014Z,11.27
2023-04-07T11:56:44.572Z,10.73
2023-04-07T11:59:46.006Z,9.75
2023-04-07T12:02:47.743Z,9.77
2023-04-07T12:05:49.493Z,10.38
2023-04-07T12:08:50.960Z,10.48
2023-04-07T12:11:52.474Z,9.50
2023-04-07T12:14:54.571Z,9.60
2023-04-07T12:17:56.119Z,10.02
2023-04-07T12:20:58.993Z,9.10
2023-04-07T12:24:00.476Z,9.65
2023-04-07T12:27:02.988Z,8.60
2023-04-07T12:30:04.787Z,8.45
2023-04-07T12:33:06.319Z,7.28
2023-04-07T12:36:07.924Z,6.68
2023-04-07T12:39:09.634Z,6.65
2023-04-07T12:42:11.951Z,7.00
2023-04-07T12:45:13.503Z,5.07
2023-04-07T12:48:16.221Z,4.75
2023-04-07T12:51:17.837Z,4.63
2023-04-07T12:54:19.448Z,5.57
2023-04-07T12:57:20.991Z,6.63
2023-04-07T13:00:22.612Z,7.70
2023-04-07T13:03:24.218Z,7.70
2023-04-07T13:06:25.887Z,9.15
2023-04-07T13:09:27.410Z,9.38
2023-04-07T13:12:28.868Z,9.33
2023-04-07T13:15:30.417Z,8.97
2023-04-07T13:18:31.850Z,8.35
2023-04-07T13:24:37.657Z,8.10
2023-04-07T13:27:39.068Z,7.82
2023-04-07T13:30:41.536Z,8.00
2023-04-07T13:33:43.108Z,6.80
2023-04-07T13:36:44.528Z,7.57
2023-04-07T13:39:46.183Z,6.30
2023-04-07T13:42:47.557Z,6.30
2023-04-07T13:45:49.254Z,6.47
2023-04-07T13:48:51.032Z,5.65
2023-04-07T13:51:52.541Z,5.45
2023-04-07T13:54:54.198Z,7.00
2023-04-07T13:57:55.631Z,6.30
2023-04-07T14:00:57.272Z,5.70
2023-04-07T14:04:00.854Z,4.97
2023-04-07T14:07:03.523Z,4.78
2023-04-07T14:13:06.906Z,5.13
2023-04-07T14:16:08.409Z,4.80
2023-04-07T14:19:09.935Z,3.85
2023-04-07T14:22:11.389Z,3.92
2023-04-07T14:25:12.810Z,3.83
2023-04-07T14:28:14.316Z,3.80
2023-04-07T14:31:16.292Z,4.10
2023-04-07T14:34:17.780Z,4.05
2023-04-07T14:37:24.039Z,4.03
2023-04-07T14:40:26.003Z,3.75
2023-04-07T14:43:27.796Z,4.30
2023-04-07T14:46:29.306Z,3.58
2023-04-07T14:49:30.771Z,3.85
2023-04-07T14:52:32.383Z,3.63
2023-04-07T14:55:34.360Z,3.97
2023-04-07T14:58:37.380Z,3.55
2023-04-07T15:01:39.817Z,3.70
2023-04-07T15:04:41.471Z,3.65
2023-04-07T15:07:48.452Z,3.35
2023-04-07T15:10:49.923Z,3.20
2023-04-07T15:13:51.626Z,3.00
2023-04-07T15:16:53.250Z,3.47
2023-04-07T15:19:54.924Z,3.20
2023-04-07T15:22:56.860Z,3.30
2023-04-07T15:25:58.311Z,3.38
2023-04-07T15:29:04.813Z,3.30
2023-04-07T15:32:06.436Z,3.03
2023-04-07T15:35:08.297Z,3.30
2023-04-07T15:38:10.057Z,3.17
2023-04-07T15:41:16.244Z,3.40
2023-04-07T15:44:21.062Z,2.88
2023-04-07T15:47:22.568Z,2.88
2023-04-07T15:50:24.939Z,3.00
2023-04-07T15:53:26.456Z,3.30
2023-04-07T15:56:27.956Z,2.85
2023-04-07T15:59:30.934Z,3.05
2023-04-07T16:02:32.679Z,2.95
2023-04-07T16:05:34.311Z,3.05
2023-04-07T16:08:35.729Z,3.22
2023-04-07T16:11:37.133Z,3.00
2023-04-07T16:14:38.619Z,3.50
2023-04-07T16:17:43.044Z,3.55
2023-04-07T16:20:44.506Z,4.10
2023-04-07T16:23:46.271Z,3.50
2023-04-07T16:26:50.384Z,3.20
2023-04-07T16:29:51.857Z,2.63
2023-04-07T16:32:53.352Z,3.10
2023-04-07T16:35:54.999Z,3.30
2023-04-07T16:38:57.586Z,3.00
2023-04-07T16:41:59.025Z,2.97
2023-04-07T16:45:01.367Z,3.13
2023-04-07T16:51:04.503Z,3.17
2023-04-07T16:54:05.981Z,3.20
2023-04-07T16:57:07.537Z,3.07
2023-04-07T17:00:09.603Z,2.80
2023-04-07T17:03:11.109Z,2.95
2023-04-07T17:06:12.688Z,2.55
2023-04-07T17:09:17.569Z,2.20
2023-04-07T17:12:19.033Z,1.90
2023-04-07T17:15:20.701Z,1.47
2023-04-07T17:18:22.133Z,1.50
2023-04-07T17:21:23.656Z,1.67
2023-04-07T17:24:25.068Z,1.80
2023-04-07T17:27:26.750Z,2.20
2023-04-07T17:30:28.308Z,2.10
2023-04-07T17:33:30.694Z,2.55
2023-04-07T17:36:33.141Z,1.73
2023-04-07T17:39:34.559Z,2.10
2023-04-07T17:42:37.156Z,2.07
2023-04-07T17:45:38.611Z,2.17
2023-04-07T17:48:40.046Z,2.13
2023-04-07T17:51:42.459Z,4.17
2023-04-07T17:54:43.936Z,5.60
2023-04-07T17:57:45.698Z,2.60
2023-04-07T18:00:47.373Z,3.20
2023-04-07T18:03:49.674Z,2.95
2023-04-07T18:06:51.567Z,2.78
2023-04-07T18:09:53.162Z,2.63
2023-04-07T18:12:54.953Z,2.80
2023-04-07T18:15:56.408Z,2.63
2023-04-07T18:18:57.958Z,2.80
2023-04-07T18:22:00.763Z,3.35
2023-04-07T18:25:02.305Z,2.78
2023-04-07T18:28:04.012Z,3.08
2023-04-07T18:31:07.670Z,2.95
2023-04-07T18:34:10.430Z,3.17
2023-04-07T18:37:11.908Z,3.58
2023-04-07T18:40:13.516Z,3.80
2023-04-07T18:43:16.902Z,3.15
2023-04-07T18:46:18.794Z,2.97
2023-04-07T18:49:20.376Z,3.08
2023-04-07T18:52:21.939Z,3.33
2023-04-07T18:55:23.324Z,3.00
2023-04-07T18:58:24.792Z,3.20
2023-04-07T19:01:27.144Z,3.00
2023-04-07T19:04:28.683Z,3.35
2023-04-07T19:07:30.364Z,3.07
2023-04-07T19:10:31.768Z,3.50
2023-04-07T19:13:33.191Z,3.40
2023-04-07T19:16:34.995Z,3.80
2023-04-07T19:19:36.451Z,3.50
2023-04-07T19:22:37.861Z,3.67
2023-04-07T19:25:40.197Z,3.57
2023-04-07T19:31:43.722Z,3.90
2023-04-07T19:34:45.308Z,3.70
2023-04-07T19:37:48.136Z,3.50
2023-04-07T19:40:49.809Z,3.40
2023-04-07T19:43:51.773Z,3.63
2023-04-07T19:46:53.431Z,3.63
2023-04-07T19:49:54.851Z,3.60
2023-04-07T19:52:56.334Z,3.67
2023-04-07T19:55:57.797Z,3.73
2023-04-07T19:58:59.350Z,4.07
2023-04-07T20:02:00.957Z,4.20
2023-04-07T20:05:03.344Z,4.40
2023-04-07T20:11:11.055Z,4.20
2023-04-07T20:14:12.487Z,4.78
2023-04-07T20:17:13.891Z,4.60
2023-04-07T20:20:15.650Z,4.80
2023-04-07T20:23:21.960Z,5.38
2023-04-07T20:26:23.462Z,5.40
2023-04-07T20:29:25.115Z,5.95
2023-04-07T20:32:27.007Z,5.93
2023-04-07T20:35:28.551Z,5.53
2023-04-07T20:38:30.275Z,5.22
2023-04-07T20:41:31.876Z,5.47
2023-04-07T20:44:33.367Z,6.05
2023-04-07T20:47:36.687Z,5.50
2023-04-07T20:50:38.389Z,5.35
2023-04-07T20:53:40.612Z,5.50
2023-04-07T20:59:46.002Z,5.43
2023-04-07T21:02:48.507Z,5.60
2023-04-07T21:05:50.309Z,5.45
2023-04-07T21:08:51.831Z,5.90
2023-04-07T21:11:53.656Z,5.35
2023-04-07T21:14:55.206Z,5.72
2023-04-07T21:17:56.640Z,5.73
2023-04-07T21:20:59.503Z,5.63
2023-04-07T21:24:01.244Z,6.00
2023-04-07T21:27:02.847Z,5.95
2023-04-07T21:30:06.338Z,5.93
2023-04-07T21:33:07.827Z,5.85
2023-04-07T21:36:09.253Z,5.70
2023-04-07T21:39:10.706Z,5.70
2023-04-07T21:42:12.485Z,5.30
2023-04-07T21:45:14.941Z,5.88
2023-04-07T21:48:20.644Z,5.65
2023-04-07T21:51:22.492Z,5.55
2023-04-07T21:54:24.992Z,5.65
2023-04-07T21:57:26.479Z,5.53
2023-04-07T22:00:27.896Z,6.23
2023-04-07T22:03:29.632Z,5.83
2023-04-07T22:06:31.364Z,6.45
2023-04-07T22:09:32.818Z,6.67
2023-04-07T22:12:34.264Z,8.00
2023-04-07T22:15:35.724Z,8.53
2023-04-07T22:18:37.154Z,8.97
2023-04-07T22:21:38.614Z,7.93
2023-04-07T22:24:40.225Z,8.90
2023-04-07T22:27:41.653Z,8.93
2023-04-07T22:30:43.119Z,10.47
2023-04-07T22:33:44.510Z,8.40
2023-04-07T22:36:46.248Z,8.40
2023-04-07T22:39:47.676Z,9.02
2023-04-07T22:42:49.087Z,8.50
2023-04-07T22:45:51.154Z,7.40
2023-04-07T22:48:52.613Z,9.50
2023-04-07T22:51:55.217Z,8.03
2023-04-07T22:54:57.796Z,6.53
2023-04-07T22:57:59.312Z,6.38
2023-04-07T23:01:01.346Z,5.77
2023-04-07T23:04:02.780Z,6.60
2023-04-07T23:07:04.205Z,6.40
2023-04-07T23:10:07.614Z,6.50
2023-04-07T23:13:09.108Z,6.28
2023-04-07T23:16:14.280Z,6.90
2023-04-07T23:19:15.868Z,7.10
2023-04-07T23:22:17.341Z,6.45
2023-04-07T23:25:18.754Z,6.67
2023-04-07T23:28:20.409Z,6.73
2023-04-07T23:31:21.972Z,7.95
2023-04-07T23:34:23.410Z,6.95
2023-04-07T23:37:24.830Z,7.80
2023-04-07T23:40:26.666Z,8.23
2023-04-07T23:43:28.097Z,8.88
2023-04-07T23:46:29.562Z,8.90
2023-04-07T23:49:31.310Z,9.18
2023-04-07T23:52:32.733Z,9.27
2023-04-07T23:55:34.185Z,9.93
2023-04-07T23:58:35.637Z,9.57
